Time;durP1;ratioP1;P1;durP2;ratioP2;P2;SDS_P1;SDS_P2;PMS_P1;PMS_P2;Temp;Humidity;BMP_temperature;BMP_pressure;BME280_temperature;BME280_humidity;BME280_pressure;Samples;Min_cycle;Max_cycle;Signal;HPM_P1;HPM_P2
2022/09/06 00:00:07;;;;;;;11.70;10.30;;;;;;;;;;4992487;28;20018;-72
2022/09/06 00:02:34;;;;;;;12.63;11.32;;;;;;;;;;4977240;28;20559;-70
2022/09/06 00:05:00;;;;;;;12.77;11.48;;;;;;;;;;5003832;28;20034;-76
2022/09/06 00:07:26;;;;;;;11.63;10.43;;;;;;;;;;4992613;28;20031;-77
2022/09/06 00:09:53;;;;;;;12.75;11.35;;;;;;;;;;4995771;28;20046;-72
2022/09/06 00:12:19;;;;;;;12.45;10.77;;;;;;;;;;4996585;28;20495;-73
2022/09/06 00:14:45;;;;;;;12.93;11.20;;;;;;;;;;5008001;28;20030;-78
2022/09/06 00:17:11;;;;;;;12.98;11.38;;;;;;;;;;5002013;28;20026;-70
2022/09/06 00:19:37;;;;;;;14.70;12.05;;;;;;;;;;5001757;28;20468;-77
2022/09/06 00:22:03;;;;;;;14.40;12.18;;;;;;;;;;5012839;28;20057;-78
2022/09/06 00:24:29;;;;;;;14.30;12.25;;;;;;;;;;5004810;28;20041;-75
2022/09/06 00:26:55;;;;;;;14.10;12.30;;;;;;;;;;5010886;28;20432;-75
2022/09/06 00:29:21;;;;;;;15.95;12.55;;;;;;;;;;5012450;28;20108;-75
2022/09/06 00:31:47;;;;;;;14.73;12.80;;;;;;;;;;5007207;28;20033;-73
2022/09/06 00:34:13;;;;;;;15.65;12.98;;;;;;;;;;5003461;28;20026;-69
2022/09/06 00:36:40;;;;;;;15.45;12.80;;;;;;;;;;5001344;28;20026;-75
2022/09/06 00:39:06;;;;;;;15.73;13.07;;;;;;;;;;5002324;28;20045;-77
2022/09/06 00:41:32;;;;;;;15.55;13.88;;;;;;;;;;4982393;28;20080;-76
2022/09/06 00:43:58;;;;;;;15.52;13.27;;;;;;;;;;4996808;28;20031;-76
2022/09/06 00:46:26;;;;;;;17.40;13.77;;;;;;;;;;4978207;28;20042;-76
2022/09/06 00:48:56;;;;;;;15.85;12.98;;;;;;;;;;4989300;28;20018;-76
2022/09/06 00:51:22;;;;;;;15.10;13.20;;;;;;;;;;4988052;28;20031;-73
2022/09/06 00:53:49;;;;;;;15.90;13.13;;;;;;;;;;4998586;28;20093;-76
2022/09/06 00:56:15;;;;;;;14.88;13.35;;;;;;;;;;4980607;28;20033;-69
2022/09/06 00:58:42;;;;;;;16.95;14.55;;;;;;;;;;4982702;28;20062;-70
2022/09/06 01:01:10;;;;;;;14.82;13.25;;;;;;;;;;4978631;28;20030;-70
2022/09/06 01:03:36;;;;;;;16.90;12.88;;;;;;;;;;4975803;28;20411;-76
2022/09/06 01:06:09;;;;;;;16.05;13.43;;;;;;;;;;4987702;28;20050;-72
2022/09/06 01:08:41;;;;;;;16.48;14.15;;;;;;;;;;4957393;28;20038;-75
2022/09/06 01:11:21;;;;;;;15.70;13.10;;;;;;;;;;4986441;28;20437;-71
2022/09/06 01:13:50;;;;;;;14.88;12.73;;;;;;;;;;4997997;28;20047;-77
2022/09/06 01:16:19;;;;;;;14.25;12.75;;;;;;;;;;4986477;28;20106;-70
2022/09/06 01:18:48;;;;;;;17.40;12.25;;;;;;;;;;4983491;28;20099;-73
2022/09/06 01:21:24;;;;;;;14.95;13.25;;;;;;;;;;4998131;28;20405;-70
2022/09/06 01:23:59;;;;;;;15.75;12.90;;;;;;;;;;4972228;28;20031;-75
2022/09/06 01:26:34;;;;;;;14.80;13.23;;;;;;;;;;4997134;28;20053;-75
2022/09/06 01:29:01;;;;;;;15.73;13.13;;;;;;;;;;4985806;28;20037;-76
2022/09/06 01:31:34;;;;;;;14.35;12.85;;;;;;;;;;4979888;28;20037;-78
2022/09/06 01:34:03;;;;;;;15.63;13.25;;;;;;;;;;4980232;28;20027;-76
2022/09/06 01:36:36;;;;;;;15.85;12.68;;;;;;;;;;4977986;28;20019;-74
2022/09/06 01:39:02;;;;;;;14.85;13.30;;;;;;;;;;4977922;28;20080;-76
2022/09/06 01:41:29;;;;;;;15.98;12.98;;;;;;;;;;4973231;28;20094;-70
2022/09/06 01:43:56;;;;;;;14.40;12.90;;;;;;;;;;4977877;28;20081;-72
2022/09/06 01:46:33;;;;;;;14.57;13.18;;;;;;;;;;4982352;28;20030;-73
2022/09/06 01:49:06;;;;;;;14.90;13.38;;;;;;;;;;4997224;28;20024;-75
2022/09/06 01:51:32;;;;;;;14.82;13.32;;;;;;;;;;4982186;28;20043;-72
2022/09/06 01:54:07;;;;;;;15.48;12.73;;;;;;;;;;4987553;28;20034;-76
2022/09/06 01:56:50;;;;;;;17.15;13.45;;;;;;;;;;4985594;28;20031;-74
2022/09/06 01:59:27;;;;;;;15.82;13.70;;;;;;;;;;4998124;28;20547;-74
2022/09/06 02:02:05;;;;;;;15.48;13.70;;;;;;;;;;4974989;28;20066;-72
2022/09/06 02:04:37;;;;;;;15.85;13.48;;;;;;;;;;4988090;28;20061;-71
2022/09/06 02:07:09;;;;;;;15.75;13.10;;;;;;;;;;4990557;28;20085;-73
2022/09/06 02:09:40;;;;;;;16.15;12.23;;;;;;;;;;4994238;28;20033;-73
2022/09/06 02:12:07;;;;;;;14.20;12.68;;;;;;;;;;4985167;28;20358;-75
2022/09/06 02:14:36;;;;;;;14.60;13.10;;;;;;;;;;4986044;28;20022;-70
2022/09/06 02:17:05;;;;;;;21.73;14.38;;;;;;;;;;4986288;28;20405;-73
2022/09/06 02:19:57;;;;;;;15.40;13.73;;;;;;;;;;4977013;28;20029;-73
2022/09/06 02:22:26;;;;;;;14.88;13.38;;;;;;;;;;4903345;29;20032;-70
2022/09/06 02:24:53;;;;;;;15.20;13.68;;;;;;;;;;4909082;29;20055;-76
2022/09/06 02:27:19;;;;;;;14.48;12.98;;;;;;;;;;4915689;29;20043;-75
2022/09/06 02:29:45;;;;;;;15.20;12.50;;;;;;;;;;4902760;29;20092;-76
2022/09/06 02:32:20;;;;;;;14.73;12.75;;;;;;;;;;4911699;29;20043;-76
2022/09/06 02:34:47;;;;;;;16.20;13.48;;;;;;;;;;4904880;29;20115;-75
2022/09/06 02:37:14;;;;;;;17.90;14.18;;;;;;;;;;4904082;29;20036;-75
2022/09/06 02:39:40;;;;;;;18.85;12.80;;;;;;;;;;4902961;29;20056;-76
2022/09/06 02:42:08;;;;;;;16.13;14.02;;;;;;;;;;4898941;29;20033;-76
2022/09/06 02:44:34;;;;;;;15.13;13.10;;;;;;;;;;4897086;29;20500;-76
2022/09/06 02:47:03;;;;;;;15.50;12.60;;;;;;;;;;4899093;29;20044;-76
2022/09/06 02:49:29;;;;;;;16.05;12.95;;;;;;;;;;4897792;29;20578;-76
2022/09/06 02:51:56;;;;;;;14.95;12.63;;;;;;;;;;4898290;29;20040;-72
2022/09/06 02:54:22;;;;;;;17.05;14.27;;;;;;;;;;4895668;29;20052;-70
2022/09/06 02:56:48;;;;;;;15.55;13.85;;;;;;;;;;4895052;29;20029;-76
2022/09/06 02:59:14;;;;;;;16.67;14.13;;;;;;;;;;4931585;28;20035;-73
2022/09/06 03:01:40;;;;;;;17.08;13.50;;;;;;;;;;4956923;28;20046;-76
2022/09/06 03:04:07;;;;;;;15.23;13.63;;;;;;;;;;4964113;28;20031;-73
2022/09/06 03:06:33;;;;;;;15.52;13.20;;;;;;;;;;4960166;28;20504;-72
2022/09/06 03:08:59;;;;;;;15.38;13.77;;;;;;;;;;4972929;28;20035;-74
2022/09/06 03:11:31;;;;;;;15.77;13.55;;;;;;;;;;4956497;28;20094;-76
2022/09/06 03:13:57;;;;;;;17.92;13.27;;;;;;;;;;4975654;28;20031;-76
2022/09/06 03:16:23;;;;;;;20.83;12.95;;;;;;;;;;4969580;28;20078;-76
2022/09/06 03:18:52;;;;;;;17.17;13.35;;;;;;;;;;4973293;28;20034;-75
2022/09/06 03:21:18;;;;;;;17.13;13.75;;;;;;;;;;4965740;28;20024;-76
2022/09/06 03:23:46;;;;;;;15.85;14.00;;;;;;;;;;4971196;28;20085;-75
2022/09/06 03:26:12;;;;;;;15.98;14.20;;;;;;;;;;4969138;28;20023;-75
2022/09/06 03:28:38;;;;;;;16.38;13.02;;;;;;;;;;4958393;28;20027;-76
2022/09/06 03:31:07;;;;;;;15.45;13.35;;;;;;;;;;4958031;28;20094;-74
2022/09/06 03:33:36;;;;;;;15.20;13.60;;;;;;;;;;4970184;28;20093;-75
2022/09/06 03:36:02;;;;;;;15.93;13.40;;;;;;;;;;4971363;28;20050;-70
2022/09/06 03:38:28;;;;;;;14.90;12.95;;;;;;;;;;4956294;28;20035;-73
2022/09/06 03:40:55;;;;;;;14.88;13.32;;;;;;;;;;4975611;28;20019;-73
2022/09/06 03:43:22;;;;;;;15.70;13.57;;;;;;;;;;4964646;28;20035;-76
2022/09/06 03:45:49;;;;;;;15.27;13.55;;;;;;;;;;4974713;28;20034;-75
2022/09/06 03:48:19;;;;;;;16.15;14.48;;;;;;;;;;4974813;28;20035;-74
2022/09/06 03:50:45;;;;;;;17.15;14.40;;;;;;;;;;4984556;28;20074;-76
2022/09/06 03:53:11;;;;;;;16.52;14.23;;;;;;;;;;4979621;28;20098;-76
2022/09/06 03:55:38;;;;;;;16.95;15.18;;;;;;;;;;4981858;28;20030;-75
2022/09/06 03:58:04;;;;;;;19.08;14.63;;;;;;;;;;4978063;28;20477;-75
2022/09/06 04:00:32;;;;;;;17.45;15.57;;;;;;;;;;4973004;28;20041;-75
2022/09/06 04:02:58;;;;;;;16.58;14.68;;;;;;;;;;4980990;28;20035;-71
2022/09/06 04:05:27;;;;;;;17.85;14.43;;;;;;;;;;4973825;28;20106;-72
2022/09/06 04:07:55;;;;;;;17.77;14.68;;;;;;;;;;4974229;28;20027;-70
2022/09/06 04:10:21;;;;;;;19.05;13.93;;;;;;;;;;4976799;28;20034;-74
2022/09/06 04:12:47;;;;;;;15.68;14.02;;;;;;;;;;4967243;28;20465;-70
2022/09/06 04:15:16;;;;;;;15.02;13.43;;;;;;;;;;4968479;28;20039;-69
2022/09/06 04:17:47;;;;;;;18.00;13.90;;;;;;;;;;4974252;28;20155;-70
2022/09/06 04:20:14;;;;;;;15.52;13.93;;;;;;;;;;4972365;28;20035;-74
2022/09/06 04:22:43;;;;;;;15.75;14.05;;;;;;;;;;4978254;28;20039;-78
2022/09/06 04:25:09;;;;;;;15.80;13.93;;;;;;;;;;4983951;28;20030;-74
2022/09/06 04:27:35;;;;;;;17.23;15.07;;;;;;;;;;4977670;28;20094;-70
2022/09/06 04:30:01;;;;;;;17.08;14.13;;;;;;;;;;4972741;28;20023;-71
2022/09/06 04:32:32;;;;;;;21.45;14.93;;;;;;;;;;4975280;28;20101;-72
2022/09/06 04:38:05;;;;;;;15.73;13.95;;;;;;;;;;4874155;29;20045;-75
2022/09/06 04:40:32;;;;;;;16.50;14.52;;;;;;;;;;4874399;29;20189;-75
2022/09/06 04:42:58;;;;;;;18.65;14.40;;;;;;;;;;4860675;29;20044;-74
2022/09/06 04:45:28;;;;;;;19.15;14.23;;;;;;;;;;4874057;29;20025;-71
2022/09/06 04:47:56;;;;;;;18.33;14.43;;;;;;;;;;4859703;29;20021;-71
2022/09/06 04:50:22;;;;;;;19.70;14.07;;;;;;;;;;4877826;29;20037;-70
2022/09/06 04:52:48;;;;;;;19.25;14.23;;;;;;;;;;4882316;29;20104;-72
2022/09/06 04:55:14;;;;;;;15.80;14.10;;;;;;;;;;4882653;29;20033;-73
2022/09/06 04:57:40;;;;;;;22.80;15.00;;;;;;;;;;4880306;29;20040;-74
2022/09/06 05:00:07;;;;;;;17.90;15.07;;;;;;;;;;4881888;29;20033;-74
2022/09/06 05:02:53;;;;;;;19.23;14.10;;;;;;;;;;4878548;29;20105;-75
2022/09/06 05:05:21;;;;;;;18.38;14.18;;;;;;;;;;4882478;29;20037;-73
2022/09/06 05:07:47;;;;;;;15.90;12.60;;;;;;;;;;4870556;29;20072;-73
2022/09/06 05:10:15;;;;;;;17.92;12.55;;;;;;;;;;4890776;29;20495;-74
2022/09/06 05:12:42;;;;;;;21.00;12.90;;;;;;;;;;4885810;29;20122;-72
2022/09/06 05:15:08;;;;;;;17.50;11.60;;;;;;;;;;4946870;28;20054;-72
2022/09/06 05:17:34;;;;;;;15.68;11.23;;;;;;;;;;4994066;28;20031;-75
2022/09/06 05:20:06;;;;;;;16.13;12.02;;;;;;;;;;4986320;28;20022;-75
2022/09/06 05:22:32;;;;;;;15.50;10.82;;;;;;;;;;4957277;29;20031;-77
2022/09/06 05:25:01;;;;;;;13.63;10.20;;;;;;;;;;4974444;28;20385;-89
2022/09/06 05:27:27;;;;;;;20.05;12.68;;;;;;;;;;4972765;28;20037;-88
2022/09/06 05:29:53;;;;;;;19.50;10.38;;;;;;;;;;4956728;28;20030;-84
2022/09/06 05:32:21;;;;;;;18.33;11.55;;;;;;;;;;4975609;28;20039;-75
2022/09/06 05:34:47;;;;;;;16.70;10.63;;;;;;;;;;4975424;28;20027;-86
2022/09/06 05:37:14;;;;;;;16.30;10.77;;;;;;;;;;4958299;28;20026;-86
2022/09/06 05:39:40;;;;;;;17.02;10.75;;;;;;;;;;4957181;28;20054;-86
2022/09/06 05:42:06;;;;;;;19.42;11.15;;;;;;;;;;4957844;28;20026;-86
2022/09/06 05:44:33;;;;;;;15.00;10.68;;;;;;;;;;4952112;28;20110;-89
2022/09/06 05:47:00;;;;;;;17.73;10.88;;;;;;;;;;4975662;28;20074;-92
2022/09/06 05:49:26;;;;;;;18.42;10.82;;;;;;;;;;4975597;28;20074;-79
2022/09/06 05:51:52;;;;;;;18.33;10.50;;;;;;;;;;4974548;28;20113;-73
2022/09/06 05:54:22;;;;;;;16.50;9.35;;;;;;;;;;4974149;28;20026;-76
2022/09/06 05:56:49;;;;;;;18.90;9.93;;;;;;;;;;4973744;28;20022;-76
2022/09/06 05:59:15;;;;;;;18.92;9.65;;;;;;;;;;4975410;28;20098;-77
2022/09/06 06:01:49;;;;;;;20.77;10.18;;;;;;;;;;4948610;28;20426;-77
2022/09/06 06:04:15;;;;;;;21.02;10.65;;;;;;;;;;4965562;28;20081;-73
2022/09/06 06:07:01;;;;;;;18.25;12.75;;;;;;;;;;4973490;28;20057;-70
2022/09/06 06:09:40;;;;;;;18.85;12.15;;;;;;;;;;4966353;28;20120;-74
2022/09/06 06:12:07;;;;;;;16.52;11.48;;;;;;;;;;4956121;28;20039;-73
2022/09/06 06:14:33;;;;;;;18.08;11.30;;;;;;;;;;4974526;28;20115;-78
2022/09/06 06:16:59;;;;;;;14.98;10.82;;;;;;;;;;4973801;28;20058;-76
2022/09/06 06:19:27;;;;;;;19.48;11.48;;;;;;;;;;4973676;28;20038;-76
2022/09/06 06:21:54;;;;;;;16.60;10.85;;;;;;;;;;4974002;28;20034;-75
2022/09/06 06:24:21;;;;;;;13.75;10.02;;;;;;;;;;4965113;28;20556;-76
2022/09/06 06:26:47;;;;;;;15.88;10.57;;;;;;;;;;4953393;28;20396;-76
2022/09/06 06:29:13;;;;;;;13.25;9.52;;;;;;;;;;4974487;28;20045;-77
2022/09/06 06:31:39;;;;;;;14.25;9.50;;;;;;;;;;4968101;28;20035;-77
2022/09/06 06:34:06;;;;;;;18.60;9.75;;;;;;;;;;4974315;28;20538;-76
2022/09/06 06:36:33;;;;;;;11.15;8.48;;;;;;;;;;4974024;28;20039;-74
2022/09/06 06:39:00;;;;;;;10.98;8.32;;;;;;;;;;4973495;28;20085;-78
2022/09/06 06:41:27;;;;;;;12.85;8.25;;;;;;;;;;4973836;28;20488;-76
2022/09/06 06:43:58;;;;;;;17.67;8.73;;;;;;;;;;4973390;28;20046;-76
2022/09/06 06:46:25;;;;;;;12.95;8.88;;;;;;;;;;4955387;28;20043;-73
2022/09/06 06:48:53;;;;;;;10.30;8.88;;;;;;;;;;4968737;28;20027;-80
2022/09/06 06:51:21;;;;;;;10.02;8.95;;;;;;;;;;4971140;28;20039;-76
2022/09/06 06:53:47;;;;;;;13.32;9.30;;;;;;;;;;4976244;28;20022;-68
2022/09/06 06:56:18;;;;;;;9.52;8.50;;;;;;;;;;4971068;28;20030;-67
2022/09/06 06:58:45;;;;;;;21.17;13.60;;;;;;;;;;4974014;28;20030;-66
2022/09/06 07:01:12;;;;;;;9.30;7.93;;;;;;;;;;4972369;28;20030;-65
2022/09/06 07:03:38;;;;;;;9.52;8.10;;;;;;;;;;4972739;28;20027;-77
2022/09/06 07:06:09;;;;;;;10.30;7.82;;;;;;;;;;4967499;28;20030;-74
2022/09/06 07:08:37;;;;;;;13.40;8.32;;;;;;;;;;4972293;28;20049;-68
2022/09/06 07:11:11;;;;;;;8.68;7.78;;;;;;;;;;4955953;28;20114;-68
2022/09/06 07:13:37;;;;;;;9.10;8.13;;;;;;;;;;4955736;28;20027;-68
2022/09/06 07:16:22;;;;;;;10.27;8.38;;;;;;;;;;4973423;28;20535;-68
2022/09/06 07:18:52;;;;;;;9.75;8.27;;;;;;;;;;4973269;28;20027;-68
2022/09/06 07:21:19;;;;;;;9.60;8.60;;;;;;;;;;4973038;28;20117;-68
2022/09/06 07:23:45;;;;;;;10.75;8.77;;;;;;;;;;4972812;28;20034;-67
2022/09/06 07:26:15;;;;;;;10.10;8.55;;;;;;;;;;4973322;28;20029;-70
2022/09/06 07:28:41;;;;;;;10.02;8.48;;;;;;;;;;4973496;28;20022;-67
2022/09/06 07:31:08;;;;;;;10.35;8.05;;;;;;;;;;4972978;28;20457;-69
2022/09/06 07:33:35;;;;;;;10.35;7.90;;;;;;;;;;4973485;28;20034;-69
2022/09/06 07:36:02;;;;;;;9.05;8.13;;;;;;;;;;4952702;28;20031;-70
2022/09/06 07:38:28;;;;;;;10.18;8.25;;;;;;;;;;4955919;28;20050;-69
2022/09/06 07:41:01;;;;;;;9.57;8.55;;;;;;;;;;4972936;28;20053;-70
2022/09/06 07:43:31;;;;;;;11.40;7.90;;;;;;;;;;4973184;28;20053;-70
2022/09/06 07:46:11;;;;;;;9.27;8.10;;;;;;;;;;4955572;28;20023;-70
2022/09/06 07:48:38;;;;;;;10.10;8.02;;;;;;;;;;4961467;28;20038;-70
2022/09/06 07:51:15;;;;;;;9.50;8.35;;;;;;;;;;4973266;28;20035;-70
2022/09/06 07:53:42;;;;;;;12.02;8.55;;;;;;;;;;4970411;28;20019;-72
2022/09/06 07:56:11;;;;;;;9.88;8.45;;;;;;;;;;4972827;28;20037;-70
2022/09/06 07:58:47;;;;;;;10.40;8.18;;;;;;;;;;4972906;28;20026;-68
2022/09/06 08:01:14;;;;;;;10.10;8.65;;;;;;;;;;4967949;28;20093;-69
2022/09/06 08:03:43;;;;;;;13.73;8.40;;;;;;;;;;4967195;28;20023;-70
2022/09/06 08:06:16;;;;;;;10.13;8.18;;;;;;;;;;4954572;28;20031;-69
2022/09/06 08:08:42;;;;;;;9.10;8.05;;;;;;;;;;4972699;28;20026;-69
2022/09/06 08:11:22;;;;;;;10.20;8.48;;;;;;;;;;4955557;28;20062;-69
2022/09/06 08:13:54;;;;;;;8.90;8.00;;;;;;;;;;4953681;28;20026;-70
2022/09/06 08:16:21;;;;;;;8.93;8.02;;;;;;;;;;4951899;28;20050;-79
2022/09/06 08:18:53;;;;;;;10.77;8.65;;;;;;;;;;4972400;28;20385;-72
2022/09/06 08:21:22;;;;;;;12.07;8.98;;;;;;;;;;4971294;28;20038;-73
2022/09/06 08:23:49;;;;;;;11.05;8.85;;;;;;;;;;4969495;28;20022;-73
2022/09/06 08:26:19;;;;;;;9.15;8.18;;;;;;;;;;4966839;28;20039;-74
2022/09/06 08:28:46;;;;;;;11.75;8.75;;;;;;;;;;4976583;28;20021;-76
2022/09/06 08:31:15;;;;;;;11.65;8.48;;;;;;;;;;4973873;28;20039;-77
2022/09/06 08:33:42;;;;;;;10.20;8.10;;;;;;;;;;4974102;28;20401;-80
2022/09/06 08:36:10;;;;;;;9.68;8.27;;;;;;;;;;4976462;28;20031;-74
2022/09/06 08:38:37;;;;;;;10.70;8.63;;;;;;;;;;4975895;28;20035;-76
2022/09/06 08:41:20;;;;;;;10.43;8.20;;;;;;;;;;4976448;28;20548;-73
2022/09/06 08:43:57;;;;;;;12.77;7.75;;;;;;;;;;4974480;28;20042;-74
2022/09/06 08:46:29;;;;;;;9.13;8.00;;;;;;;;;;4972057;28;20026;-80
2022/09/06 08:48:56;;;;;;;10.68;8.63;;;;;;;;;;4981502;28;20043;-76
2022/09/06 08:51:44;;;;;;;10.32;7.88;;;;;;;;;;4979686;28;20082;-88
2022/09/06 08:54:25;;;;;;;8.77;6.85;;;;;;;;;;4971965;28;20031;-82
2022/09/06 08:57:02;;;;;;;12.38;9.18;;;;;;;;;;4975354;28;20022;-85
2022/09/06 08:59:29;;;;;;;10.73;8.40;;;;;;;;;;4974314;28;20499;-79
2022/09/06 09:01:55;;;;;;;9.73;7.82;;;;;;;;;;4976163;28;20050;-76
2022/09/06 09:04:24;;;;;;;8.98;7.70;;;;;;;;;;4975781;28;20023;-83
2022/09/06 09:06:53;;;;;;;8.82;7.57;;;;;;;;;;4972911;28;20049;-69
2022/09/06 09:09:19;;;;;;;7.93;7.13;;;;;;;;;;4969960;28;20081;-73
2022/09/06 09:11:47;;;;;;;9.63;7.70;;;;;;;;;;4975151;28;20130;-77
2022/09/06 09:14:47;;;;;;;8.73;6.97;;;;;;;;;;4978304;28;20058;-78
2022/09/06 09:17:29;;;;;;;8.95;7.22;;;;;;;;;;4862099;29;20100;-77
2022/09/06 09:19:55;;;;;;;11.77;7.00;;;;;;;;;;4873262;29;20036;-90
2022/09/06 09:22:22;;;;;;;9.85;8.32;;;;;;;;;;4883532;29;20025;-81
2022/09/06 09:24:50;;;;;;;12.02;8.60;;;;;;;;;;4862212;29;20029;-72
2022/09/06 09:27:19;;;;;;;12.63;8.25;;;;;;;;;;4874220;29;20415;-83
2022/09/06 09:29:54;;;;;;;11.65;7.93;;;;;;;;;;4861438;29;20068;-86
2022/09/06 09:32:37;;;;;;;10.13;8.25;;;;;;;;;;4861460;29;20047;-83
2022/09/06 09:35:16;;;;;;;9.05;7.43;;;;;;;;;;4878021;29;20582;-83
2022/09/06 09:37:42;;;;;;;11.43;7.78;;;;;;;;;;4875021;29;20124;-88
2022/09/06 09:40:28;;;;;;;13.07;7.22;;;;;;;;;;4859040;29;20045;-84
2022/09/06 09:42:56;;;;;;;9.68;7.32;;;;;;;;;;4861126;29;20130;-88
2022/09/06 09:45:27;;;;;;;9.70;7.38;;;;;;;;;;4875984;29;20499;-76
2022/09/06 09:47:53;;;;;;;11.70;7.50;;;;;;;;;;4875126;29;20123;-88
2022/09/06 09:50:34;;;;;;;11.25;7.63;;;;;;;;;;4875699;29;20037;-85
2022/09/06 09:53:07;;;;;;;9.32;7.22;;;;;;;;;;4923940;29;20524;-72
2022/09/06 09:55:33;;;;;;;10.05;7.28;;;;;;;;;;4953751;28;20027;-80
2022/09/06 09:57:59;;;;;;;10.90;7.53;;;;;;;;;;4967223;28;20596;-84
2022/09/06 10:00:51;;;;;;;9.25;6.90;;;;;;;;;;4953776;28;20051;-81
2022/09/06 10:03:19;;;;;;;10.13;6.70;;;;;;;;;;4949211;29;20160;-84
2022/09/06 10:06:01;;;;;;;7.95;6.65;;;;;;;;;;4952732;28;20031;-83
2022/09/06 10:08:30;;;;;;;7.30;6.13;;;;;;;;;;4952342;29;20035;-79
2022/09/06 10:10:56;;;;;;;9.80;7.07;;;;;;;;;;4953807;28;20022;-79
2022/09/06 10:13:30;;;;;;;7.07;6.00;;;;;;;;;;4954018;29;20158;-80
2022/09/06 10:15:57;;;;;;;12.55;7.40;;;;;;;;;;4954400;29;20493;-79
2022/09/06 10:18:31;;;;;;;10.02;6.35;;;;;;;;;;4949779;29;20223;-82
2022/09/06 10:21:21;;;;;;;16.70;8.25;;;;;;;;;;4947338;28;20042;-90
2022/09/06 10:23:52;;;;;;;18.65;8.50;;;;;;;;;;4954469;29;20030;-87
2022/09/06 10:26:37;;;;;;;12.57;7.18;;;;;;;;;;4955244;29;20033;-77
2022/09/06 10:29:04;;;;;;;9.80;6.07;;;;;;;;;;4953254;29;20141;-78
2022/09/06 10:31:42;;;;;;;10.52;6.43;;;;;;;;;;4953240;29;20082;-72
2022/09/06 10:34:11;;;;;;;8.13;5.97;;;;;;;;;;4949867;28;20027;-82
2022/09/06 10:36:37;;;;;;;8.35;5.90;;;;;;;;;;4953695;29;20039;-73
2022/09/06 10:39:08;;;;;;;10.48;6.68;;;;;;;;;;4958682;28;20043;-79
2022/09/06 10:41:34;;;;;;;6.05;5.45;;;;;;;;;;4955665;28;20037;-82
2022/09/06 10:44:12;;;;;;;6.03;5.43;;;;;;;;;;4964090;28;20023;-75
2022/09/06 10:46:44;;;;;;;7.85;6.10;;;;;;;;;;4975234;28;20116;-80
2022/09/06 10:49:13;;;;;;;12.05;6.50;;;;;;;;;;4984559;28;20023;-76
2022/09/06 10:51:44;;;;;;;9.05;6.18;;;;;;;;;;4972523;28;20435;-79
2022/09/06 10:54:13;;;;;;;8.25;5.53;;;;;;;;;;4993769;28;20027;-76
2022/09/06 10:56:39;;;;;;;8.95;5.53;;;;;;;;;;4976193;28;20041;-78
2022/09/06 10:59:18;;;;;;;7.93;5.85;;;;;;;;;;4993382;28;20022;-68
2022/09/06 11:01:59;;;;;;;6.40;5.20;;;;;;;;;;4993470;28;20034;-70
2022/09/06 11:04:29;;;;;;;7.45;5.63;;;;;;;;;;4993638;28;20041;-75
2022/09/06 11:06:57;;;;;;;6.65;5.57;;;;;;;;;;4979422;28;20384;-80
2022/09/06 11:09:35;;;;;;;6.03;5.43;;;;;;;;;;4993597;28;20019;-85
2022/09/06 11:12:19;;;;;;;8.85;5.40;;;;;;;;;;4969434;28;20495;-81
2022/09/06 11:14:45;;;;;;;6.82;4.68;;;;;;;;;;4984885;28;20447;-83
2022/09/06 11:17:21;;;;;;;5.82;5.22;;;;;;;;;;4993520;28;20022;-83
2022/09/06 11:19:51;;;;;;;7.97;5.45;;;;;;;;;;4993323;28;20054;-84
2022/09/06 11:22:23;;;;;;;7.63;4.95;;;;;;;;;;4961940;28;20054;-79
2022/09/06 11:25:03;;;;;;;6.97;4.57;;;;;;;;;;4979902;28;20357;-79
2022/09/06 11:27:29;;;;;;;7.25;5.30;;;;;;;;;;4993302;28;20060;-84
2022/09/06 11:29:57;;;;;;;6.93;5.25;;;;;;;;;;4993393;28;20085;-83
2022/09/06 11:32:31;;;;;;;7.95;4.97;;;;;;;;;;4992934;28;20046;-71
2022/09/06 11:34:58;;;;;;;6.63;5.22;;;;;;;;;;4993179;28;20026;-80
2022/09/06 11:37:31;;;;;;;6.63;5.03;;;;;;;;;;4993120;28;20113;-84
2022/09/06 11:40:07;;;;;;;5.57;4.97;;;;;;;;;;4992715;28;20058;-79
2022/09/06 11:42:45;;;;;;;5.90;5.15;;;;;;;;;;4992835;28;20034;-77
2022/09/06 11:45:11;;;;;;;11.27;5.88;;;;;;;;;;4987242;28;20069;-75
2022/09/06 11:47:41;;;;;;;6.80;5.13;;;;;;;;;;4984811;28;20026;-78
2022/09/06 11:50:36;;;;;;;7.50;6.18;;;;;;;;;;4993013;28;20057;-80
2022/09/06 11:53:14;;;;;;;6.43;5.03;;;;;;;;;;4958417;28;20122;-80
2022/09/06 11:55:42;;;;;;;5.57;4.90;;;;;;;;;;4992860;28;20045;-79
2022/09/06 11:58:29;;;;;;;8.15;5.47;;;;;;;;;;4992562;28;20483;-77
2022/09/06 12:01:17;;;;;;;7.95;5.30;;;;;;;;;;4996499;28;20029;-79
2022/09/06 12:03:54;;;;;;;7.50;5.55;;;;;;;;;;4996699;28;20468;-80
2022/09/06 12:06:21;;;;;;;5.70;4.70;;;;;;;;;;4981598;28;20059;-74
2022/09/06 12:08:48;;;;;;;6.65;4.82;;;;;;;;;;4994994;28;20121;-77
2022/09/06 12:11:33;;;;;;;7.70;6.35;;;;;;;;;;4996444;28;20034;-79
2022/09/06 12:14:08;;;;;;;8.70;4.97;;;;;;;;;;4996815;28;20026;-80
2022/09/06 12:17:12;;;;;;;9.38;7.47;;;;;;;;;;4996663;28;20024;-79
2022/09/06 12:19:46;;;;;;;8.40;5.75;;;;;;;;;;4889554;29;20430;-81
2022/09/06 12:22:36;;;;;;;7.93;5.28;;;;;;;;;;4879785;29;20047;-75
2022/09/06 12:25:04;;;;;;;10.90;5.70;;;;;;;;;;4880205;29;20049;-75
2022/09/06 12:27:43;;;;;;;12.13;6.10;;;;;;;;;;4889577;29;20021;-81
2022/09/06 12:30:13;;;;;;;8.40;5.57;;;;;;;;;;4879604;29;20562;-81
2022/09/06 12:32:44;;;;;;;11.00;5.10;;;;;;;;;;4879783;29;20041;-82
2022/09/06 12:35:19;;;;;;;6.82;5.13;;;;;;;;;;4879749;29;20029;-78
2022/09/06 12:37:58;;;;;;;5.40;4.63;;;;;;;;;;4879678;29;20380;-78
2022/09/06 12:40:26;;;;;;;13.00;8.63;;;;;;;;;;4879679;29;20093;-83
2022/09/06 12:42:52;;;;;;;8.10;6.00;;;;;;;;;;4879160;29;20040;-81
2022/09/06 12:45:20;;;;;;;14.15;8.82;;;;;;;;;;4881883;29;20037;-82
2022/09/06 12:47:47;;;;;;;6.90;5.38;;;;;;;;;;4865068;29;20480;-78
2022/09/06 12:50:24;;;;;;;8.18;5.30;;;;;;;;;;4916217;28;20102;-79
2022/09/06 12:52:52;;;;;;;7.00;5.13;;;;;;;;;;4958636;28;20049;-80
2022/09/06 12:55:21;;;;;;;8.45;5.80;;;;;;;;;;4977207;28;20015;-78
2022/09/06 12:57:52;;;;;;;6.70;5.45;;;;;;;;;;4976526;28;20035;-78
2022/09/06 13:00:19;;;;;;;6.57;4.75;;;;;;;;;;4970014;28;20029;-81
2022/09/06 13:02:59;;;;;;;7.72;5.55;;;;;;;;;;4948954;29;20031;-85
2022/09/06 13:05:25;;;;;;;8.68;5.82;;;;;;;;;;4975436;28;20015;-83
2022/09/06 13:07:57;;;;;;;5.72;5.10;;;;;;;;;;4976068;28;20461;-75
2022/09/06 13:10:24;;;;;;;11.82;5.78;;;;;;;;;;4975505;28;20503;-85
2022/09/06 13:12:51;;;;;;;10.10;6.70;;;;;;;;;;4975493;28;20035;-84
2022/09/06 13:15:24;;;;;;;8.52;6.22;;;;;;;;;;4959023;28;20034;-85
2022/09/06 13:17:50;;;;;;;10.65;7.43;;;;;;;;;;4975919;28;20078;-84
2022/09/06 13:20:29;;;;;;;7.43;5.57;;;;;;;;;;4976947;28;20089;-89
2022/09/06 13:23:24;;;;;;;15.60;7.75;;;;;;;;;;4976397;28;20015;-88
2022/09/06 13:25:54;;;;;;;7.22;5.38;;;;;;;;;;4889200;29;20448;-87
2022/09/06 13:28:24;;;;;;;6.80;5.20;;;;;;;;;;4884607;29;20617;-86
2022/09/06 13:31:09;;;;;;;9.77;4.85;;;;;;;;;;4901764;29;20120;-88
2022/09/06 13:33:36;;;;;;;8.80;4.78;;;;;;;;;;4897643;29;20041;-87
2022/09/06 13:36:11;;;;;;;6.15;5.40;;;;;;;;;;4873542;29;20040;-82
2022/09/06 13:38:37;;;;;;;5.63;4.68;;;;;;;;;;4883714;29;20028;-85
2022/09/06 13:41:04;;;;;;;11.20;6.22;;;;;;;;;;4897214;29;20064;-83
2022/09/06 13:43:33;;;;;;;7.35;5.30;;;;;;;;;;4897555;29;20045;-88
2022/09/06 13:46:10;;;;;;;13.32;6.90;;;;;;;;;;4885460;29;20037;-89
2022/09/06 13:48:42;;;;;;;13.43;8.38;;;;;;;;;;4899847;29;20107;-86
2022/09/06 13:51:09;;;;;;;6.50;5.27;;;;;;;;;;4882081;29;20088;-85
2022/09/06 13:53:35;;;;;;;18.48;8.57;;;;;;;;;;4896849;29;20399;-87
2022/09/06 13:56:03;;;;;;;5.80;5.07;;;;;;;;;;4897294;29;20058;-86
2022/09/06 13:58:30;;;;;;;5.10;4.60;;;;;;;;;;4890119;29;20033;-87
2022/09/06 14:00:56;;;;;;;8.90;5.47;;;;;;;;;;4878184;29;20076;-83
2022/09/06 14:03:25;;;;;;;8.13;4.95;;;;;;;;;;4970588;28;20046;-86
2022/09/06 14:05:59;;;;;;;5.68;4.50;;;;;;;;;;4977738;28;20034;-88
2022/09/06 14:08:25;;;;;;;21.10;7.88;;;;;;;;;;4990355;28;20427;-87
2022/09/06 14:11:01;;;;;;;8.43;5.80;;;;;;;;;;4974322;28;20026;-78
2022/09/06 14:13:28;;;;;;;7.03;4.65;;;;;;;;;;4963312;28;20034;-86
2022/09/06 14:16:10;;;;;;;7.30;4.68;;;;;;;;;;4977691;28;20018;-89
2022/09/06 14:18:56;;;;;;;5.35;4.47;;;;;;;;;;4994508;28;20069;-88
2022/09/06 14:21:22;;;;;;;7.10;4.70;;;;;;;;;;4994794;28;20504;-88
2022/09/06 14:24:00;;;;;;;6.88;4.80;;;;;;;;;;4994496;28;20023;-88
2022/09/06 14:26:38;;;;;;;6.45;4.50;;;;;;;;;;4976622;28;20038;-88
2022/09/06 14:29:07;;;;;;;5.60;4.60;;;;;;;;;;4966475;28;20019;-85
2022/09/06 14:31:35;;;;;;;11.30;5.68;;;;;;;;;;4957039;28;20392;-82
2022/09/06 14:34:02;;;;;;;7.00;4.35;;;;;;;;;;4993256;28;20486;-87
2022/09/06 14:36:30;;;;;;;11.88;5.00;;;;;;;;;;4993983;28;20049;-86
2022/09/06 14:38:57;;;;;;;7.38;4.57;;;;;;;;;;4969652;28;20047;-86
2022/09/06 14:41:23;;;;;;;9.57;4.95;;;;;;;;;;4973984;28;20155;-84
2022/09/06 14:43:50;;;;;;;7.78;5.10;;;;;;;;;;4974641;28;20523;-85
2022/09/06 14:46:17;;;;;;;4.93;4.25;;;;;;;;;;4973352;28;20041;-86
2022/09/06 14:48:44;;;;;;;7.20;4.60;;;;;;;;;;4973571;28;20030;-84